Time;durP1;ratioP1;P1;durP2;ratioP2;P2;SDS_P1;SDS_P2;PMS_P1;PMS_P2;Temp;Humidity;BMP_temperature;BMP_pressure;BME280_temperature;BME280_humidity;BME280_pressure;Samples;Min_cycle;Max_cycle;Signal;HPM_P1;HPM_P2
2022/10/22 04:02:32;;;;;;;3.50;2.90;;;;;;;;;;4998360;23;20438;-86
2022/10/22 04:04:58;;;;;;;3.20;2.90;;;;;;;;;;4996303;28;20771;-87
2022/10/22 04:07:24;;;;;;;3.33;3.03;;;;;;;;;;4992189;28;20387;-87
2022/10/22 04:09:50;;;;;;;4.10;3.60;;;;;;;;;;4994764;28;20382;-86
2022/10/22 04:12:16;;;;;;;3.97;3.40;;;;;;;;;;4992158;28;20383;-87
2022/10/22 04:14:45;;;;;;;2.90;2.50;;;;;;;;;;4992185;28;20453;-87
2022/10/22 04:17:11;;;;;;;2.97;2.67;;;;;;;;;;4992230;28;20394;-87
2022/10/22 04:19:37;;;;;;;2.70;2.50;;;;;;;;;;4991743;28;20468;-87
2022/10/22 04:22:03;;;;;;;3.08;2.88;;;;;;;;;;4993286;28;20853;-86
2022/10/22 04:24:30;;;;;;;2.47;2.00;;;;;;;;;;4993467;28;20385;-87
2022/10/22 04:26:56;;;;;;;3.33;1.90;;;;;;;;;;4993337;28;20821;-87
2022/10/22 04:29:25;;;;;;;2.40;1.80;;;;;;;;;;4992624;28;20398;-87
2022/10/22 04:31:51;;;;;;;2.90;2.10;;;;;;;;;;4993051;28;20873;-87
2022/10/22 04:34:20;;;;;;;3.92;1.40;;;;;;;;;;4991926;28;20434;-87
2022/10/22 04:36:46;;;;;;;2.47;1.20;;;;;;;;;;4991798;28;20552;-87
2022/10/22 04:39:12;;;;;;;2.10;1.33;;;;;;;;;;4993067;28;20918;-87
2022/10/22 04:41:38;;;;;;;1.95;1.30;;;;;;;;;;4992135;28;20394;-87
2022/10/22 04:44:08;;;;;;;2.17;1.33;;;;;;;;;;4991805;28;20394;-87
2022/10/22 04:46:37;;;;;;;1.60;1.10;;;;;;;;;;4993325;28;20390;-87
2022/10/22 04:49:04;;;;;;;2.05;1.10;;;;;;;;;;4992917;28;20394;-87
2022/10/22 04:51:30;;;;;;;1.75;1.20;;;;;;;;;;4993067;28;20386;-87
2022/10/22 04:53:58;;;;;;;2.90;1.27;;;;;;;;;;4992987;28;21002;-86
2022/10/22 04:56:31;;;;;;;1.42;1.20;;;;;;;;;;4992900;28;20478;-86
2022/10/22 04:58:58;;;;;;;1.23;1.13;;;;;;;;;;4991513;28;20425;-87
2022/10/22 05:01:35;;;;;;;1.52;1.40;;;;;;;;;;4992763;28;20394;-86
2022/10/22 05:04:07;;;;;;;1.30;1.20;;;;;;;;;;4991260;28;20389;-86
2022/10/22 05:06:37;;;;;;;1.53;0.90;;;;;;;;;;4991529;28;20942;-87
2022/10/22 05:09:21;;;;;;;1.70;1.60;;;;;;;;;;4995946;28;20437;-86
2022/10/22 05:11:48;;;;;;;2.08;1.20;;;;;;;;;;4996954;28;20872;-86
2022/10/22 05:14:16;;;;;;;1.67;1.30;;;;;;;;;;4996741;28;20437;-86
2022/10/22 05:16:42;;;;;;;2.55;1.55;;;;;;;;;;4995518;28;20405;-86
2022/10/22 05:19:08;;;;;;;1.30;1.02;;;;;;;;;;4996596;28;20883;-86
2022/10/22 05:21:35;;;;;;;1.30;1.20;;;;;;;;;;4996763;28;20386;-86
2022/10/22 05:24:01;;;;;;;1.90;1.23;;;;;;;;;;4996730;28;20465;-87
2022/10/22 05:26:27;;;;;;;3.40;1.30;;;;;;;;;;4996588;28;20433;-86
2022/10/22 05:28:53;;;;;;;3.80;1.20;;;;;;;;;;4996713;28;20497;-87
2022/10/22 05:31:27;;;;;;;1.83;1.03;;;;;;;;;;4996356;28;20426;-86
2022/10/22 05:33:53;;;;;;;1.10;1.00;;;;;;;;;;4996676;28;20469;-86
2022/10/22 05:36:20;;;;;;;1.40;1.00;;;;;;;;;;4996349;28;20470;-87
2022/10/22 05:38:49;;;;;;;1.30;1.20;;;;;;;;;;4995887;28;20488;-87
2022/10/22 05:41:17;;;;;;;1.70;1.40;;;;;;;;;;4996171;28;20382;-86
2022/10/22 05:43:43;;;;;;;2.22;1.88;;;;;;;;;;4995006;28;20387;-86
2022/10/22 05:46:11;;;;;;;2.10;1.35;;;;;;;;;;4995224;28;20394;-86
2022/10/22 05:48:37;;;;;;;2.00;1.40;;;;;;;;;;4996139;28;20930;-87
2022/10/22 05:51:07;;;;;;;1.40;1.30;;;;;;;;;;4994843;28;20489;-86
2022/10/22 05:53:33;;;;;;;1.97;1.30;;;;;;;;;;4995950;28;20529;-86
2022/10/22 05:56:00;;;;;;;1.73;1.40;;;;;;;;;;4994054;28;20383;-87
2022/10/22 05:58:29;;;;;;;2.77;1.30;;;;;;;;;;4995902;28;20759;-86
2022/10/22 06:00:55;;;;;;;3.10;1.88;;;;;;;;;;4994533;28;20470;-87
2022/10/22 06:03:28;;;;;;;2.20;1.50;;;;;;;;;;4994608;28;20934;-86
2022/10/22 06:05:59;;;;;;;3.00;1.48;;;;;;;;;;4994689;28;20391;-86
2022/10/22 06:08:28;;;;;;;2.70;1.63;;;;;;;;;;4994564;28;20489;-86
2022/10/22 06:10:54;;;;;;;1.70;1.58;;;;;;;;;;4995713;28;20469;-87
2022/10/22 06:13:21;;;;;;;1.52;1.42;;;;;;;;;;4994544;28;20379;-87
2022/10/22 06:15:47;;;;;;;2.73;2.10;;;;;;;;;;4995643;28;20397;-86
2022/10/22 06:18:13;;;;;;;3.10;1.90;;;;;;;;;;4995562;28;20787;-86
2022/10/22 06:20:42;;;;;;;3.03;2.72;;;;;;;;;;4995287;28;20383;-86
2022/10/22 06:23:07;;;;;;;2.60;2.33;;;;;;;;;;4993793;28;20807;-85
2022/10/22 06:25:36;;;;;;;1.77;1.67;;;;;;;;;;4995384;28;20406;-87
2022/10/22 06:28:05;;;;;;;1.90;1.80;;;;;;;;;;4986504;28;20402;-86
2022/10/22 06:30:31;;;;;;;2.60;1.60;;;;;;;;;;4985848;28;20390;-86
2022/10/22 06:33:01;;;;;;;1.60;1.50;;;;;;;;;;4995190;28;20391;-86
2022/10/22 06:35:29;;;;;;;2.28;1.80;;;;;;;;;;4993882;28;20438;-86
2022/10/22 06:37:58;;;;;;;2.55;2.20;;;;;;;;;;4989037;28;20468;-86
2022/10/22 06:40:24;;;;;;;4.32;3.67;;;;;;;;;;4989803;28;20467;-86
2022/10/22 06:42:50;;;;;;;1.50;1.40;;;;;;;;;;4977967;28;20500;-85
2022/10/22 06:45:19;;;;;;;4.30;1.80;;;;;;;;;;4994770;28;20382;-87
2022/10/22 06:47:46;;;;;;;1.90;1.20;;;;;;;;;;4995168;28;20396;-86
2022/10/22 06:50:12;;;;;;;2.05;0.80;;;;;;;;;;4994994;28;20386;-85
2022/10/22 06:52:38;;;;;;;2.40;0.80;;;;;;;;;;4994986;28;20390;-86
2022/10/22 06:55:07;;;;;;;0.63;0.63;;;;;;;;;;4994795;28;20383;-87
2022/10/22 06:57:33;;;;;;;1.60;0.90;;;;;;;;;;4994664;28;20386;-85
2022/10/22 07:00:05;;;;;;;1.52;0.80;;;;;;;;;;4993608;28;20423;-88
2022/10/22 07:02:34;;;;;;;1.33;0.90;;;;;;;;;;4994343;28;20461;-86
2022/10/22 07:05:00;;;;;;;0.73;0.60;;;;;;;;;;4994953;28;20405;-87
2022/10/22 07:07:26;;;;;;;0.90;0.50;;;;;;;;;;4994844;28;20375;-87
2022/10/22 07:09:58;;;;;;;2.35;0.85;;;;;;;;;;4994593;28;20886;-86
2022/10/22 07:12:24;;;;;;;1.20;0.70;;;;;;;;;;4993259;28;20382;-87
2022/10/22 07:14:52;;;;;;;0.80;0.80;;;;;;;;;;4974372;28;20396;-86
2022/10/22 07:17:21;;;;;;;1.00;1.00;;;;;;;;;;4988072;28;20452;-88
2022/10/22 07:19:47;;;;;;;1.88;1.10;;;;;;;;;;4990458;28;20415;-87
2022/10/22 07:22:20;;;;;;;1.77;1.15;;;;;;;;;;4976239;28;20957;-84
2022/10/22 07:24:49;;;;;;;1.85;1.33;;;;;;;;;;4978087;28;20896;-87
2022/10/22 07:27:15;;;;;;;1.20;1.10;;;;;;;;;;4985390;28;20477;-85
2022/10/22 07:29:43;;;;;;;1.50;1.40;;;;;;;;;;4989857;28;20911;-87
2022/10/22 07:32:12;;;;;;;1.70;1.60;;;;;;;;;;4993430;28;20872;-88
2022/10/22 07:34:41;;;;;;;2.80;1.90;;;;;;;;;;4981471;28;20392;-88
2022/10/22 07:37:10;;;;;;;2.30;1.60;;;;;;;;;;4984919;28;20396;-87
2022/10/22 07:39:36;;;;;;;2.72;1.73;;;;;;;;;;4989332;28;20892;-87
2022/10/22 07:42:08;;;;;;;2.17;1.98;;;;;;;;;;4993923;28;20382;-87
2022/10/22 07:44:37;;;;;;;2.40;1.75;;;;;;;;;;4986909;28;20384;-87
2022/10/22 07:47:05;;;;;;;2.30;2.20;;;;;;;;;;4993138;28;20410;-86
2022/10/22 07:49:31;;;;;;;2.55;2.40;;;;;;;;;;4993400;28;20406;-87
2022/10/22 07:51:57;;;;;;;6.10;2.28;;;;;;;;;;4990583;28;21110;-87
2022/10/22 07:54:28;;;;;;;3.13;2.85;;;;;;;;;;4984797;28;20441;-86
2022/10/22 07:56:54;;;;;;;2.92;2.72;;;;;;;;;;4989269;28;20398;-86
2022/10/22 07:59:20;;;;;;;4.35;4.00;;;;;;;;;;4993866;28;20509;-86
2022/10/22 08:01:54;;;;;;;5.20;4.70;;;;;;;;;;4993371;28;20426;-88
2022/10/22 08:04:20;;;;;;;4.90;4.32;;;;;;;;;;4995366;28;20429;-86
2022/10/22 08:06:46;;;;;;;5.00;4.50;;;;;;;;;;4988267;28;20394;-85
2022/10/22 08:09:15;;;;;;;15.20;6.07;;;;;;;;;;4975922;28;20402;-84
2022/10/22 08:11:41;;;;;;;11.07;5.57;;;;;;;;;;4974081;28;20427;-84
2022/10/22 08:14:07;;;;;;;4.90;4.50;;;;;;;;;;4992501;28;20387;-84
2022/10/22 08:16:35;;;;;;;7.32;6.05;;;;;;;;;;4993141;28;20391;-83
2022/10/22 08:19:01;;;;;;;12.05;6.32;;;;;;;;;;4993425;28;20441;-84
2022/10/22 08:21:29;;;;;;;6.70;5.93;;;;;;;;;;4979585;28;20431;-83
2022/10/22 08:23:55;;;;;;;7.40;6.10;;;;;;;;;;4975085;28;20471;-85
2022/10/22 08:26:23;;;;;;;6.57;5.97;;;;;;;;;;4990676;28;20490;-86
2022/10/22 08:28:52;;;;;;;6.47;5.50;;;;;;;;;;4983438;28;20870;-86
2022/10/22 08:31:29;;;;;;;5.75;5.35;;;;;;;;;;4975737;28;20396;-87
2022/10/22 08:33:58;;;;;;;5.88;5.47;;;;;;;;;;4974330;28;20901;-88
2022/10/22 08:36:24;;;;;;;5.40;4.90;;;;;;;;;;4982605;28;20388;-87
2022/10/22 08:38:50;;;;;;;4.88;4.47;;;;;;;;;;4987501;28;20773;-87
2022/10/22 08:41:17;;;;;;;4.40;4.10;;;;;;;;;;4987638;28;20461;-87
2022/10/22 08:44:01;;;;;;;4.57;4.18;;;;;;;;;;4992333;28;20398;-87
2022/10/22 08:46:33;;;;;;;5.45;5.03;;;;;;;;;;4981750;28;20448;-86
2022/10/22 08:49:01;;;;;;;4.78;4.38;;;;;;;;;;4988617;28;20926;-87
2022/10/22 08:51:32;;;;;;;4.32;3.90;;;;;;;;;;4991750;28;20406;-87
2022/10/22 08:54:07;;;;;;;5.13;4.20;;;;;;;;;;4992767;28;20872;-87
2022/10/22 08:56:35;;;;;;;4.85;3.42;;;;;;;;;;4992496;28;20448;-87
2022/10/22 08:59:05;;;;;;;4.50;3.80;;;;;;;;;;4992257;28;20453;-87
2022/10/22 09:01:39;;;;;;;4.72;4.32;;;;;;;;;;4992475;28;20410;-87
2022/10/22 09:04:05;;;;;;;4.50;4.20;;;;;;;;;;4992524;28;20370;-87
2022/10/22 09:06:32;;;;;;;3.00;2.70;;;;;;;;;;4992460;28;20886;-87
2022/10/22 09:08:59;;;;;;;5.57;4.63;;;;;;;;;;4992635;28;20402;-87
2022/10/22 09:11:25;;;;;;;6.88;5.75;;;;;;;;;;4992621;28;20386;-86
2022/10/22 09:13:53;;;;;;;4.80;3.27;;;;;;;;;;4996453;28;20383;-86
2022/10/22 09:16:23;;;;;;;7.10;4.88;;;;;;;;;;4994151;28;20382;-87
2022/10/22 09:19:01;;;;;;;6.35;3.70;;;;;;;;;;4994448;28;20410;-90
2022/10/22 09:21:34;;;;;;;4.53;3.33;;;;;;;;;;4992541;28;20927;-88
2022/10/22 09:24:04;;;;;;;6.80;5.93;;;;;;;;;;4992749;28;20387;-89
2022/10/22 09:26:32;;;;;;;5.10;4.60;;;;;;;;;;4992547;28;20398;-89
2022/10/22 09:28:59;;;;;;;18.75;13.30;;;;;;;;;;4991512;28;20390;-90
2022/10/22 09:31:27;;;;;;;7.70;6.05;;;;;;;;;;4992486;28;20388;-88
2022/10/22 09:33:53;;;;;;;15.38;10.55;;;;;;;;;;4992489;28;20418;-87
2022/10/22 09:36:22;;;;;;;12.13;9.55;;;;;;;;;;4992469;28;20490;-87
2022/10/22 09:38:51;;;;;;;5.95;4.82;;;;;;;;;;4992449;28;20410;-87
2022/10/22 09:41:19;;;;;;;9.10;6.10;;;;;;;;;;4991925;28;20414;-87
2022/10/22 09:43:48;;;;;;;2.75;2.55;;;;;;;;;;4992144;28;20411;-88
2022/10/22 09:46:22;;;;;;;2.00;1.20;;;;;;;;;;4992539;28;20475;-87
2022/10/22 09:48:51;;;;;;;6.07;1.60;;;;;;;;;;4992721;28;20450;-88
2022/10/22 09:51:21;;;;;;;1.88;1.00;;;;;;;;;;4992397;28;20387;-88
2022/10/22 09:53:55;;;;;;;1.30;1.20;;;;;;;;;;4992161;28;20386;-87
2022/10/22 09:56:21;;;;;;;1.65;1.30;;;;;;;;;;4995797;28;20740;-88
2022/10/22 09:58:50;;;;;;;2.58;1.88;;;;;;;;;;4995959;28;20417;-86
2022/10/22 10:01:21;;;;;;;2.75;1.90;;;;;;;;;;4995742;28;20406;-87
2022/10/22 10:03:48;;;;;;;3.20;1.85;;;;;;;;;;4995891;28;20385;-84
2022/10/22 10:06:17;;;;;;;1.85;1.52;;;;;;;;;;4995868;28;20466;-84
2022/10/22 10:08:43;;;;;;;4.47;2.42;;;;;;;;;;4996349;28;20386;-84
2022/10/22 10:11:11;;;;;;;3.10;1.38;;;;;;;;;;4995670;28;20386;-84
2022/10/22 10:13:40;;;;;;;2.83;2.50;;;;;;;;;;4995779;28;20394;-84
2022/10/22 10:16:21;;;;;;;2.55;1.60;;;;;;;;;;4995697;28;20485;-84
2022/10/22 10:18:54;;;;;;;4.60;4.00;;;;;;;;;;5002052;28;20495;-85
2022/10/22 10:21:42;;;;;;;3.22;2.72;;;;;;;;;;4995464;28;20772;-85
2022/10/22 10:24:18;;;;;;;1.92;1.50;;;;;;;;;;4995157;28;20374;-85
2022/10/22 10:26:53;;;;;;;2.33;1.48;;;;;;;;;;4983246;28;20371;-86
2022/10/22 10:29:51;;;;;;;2.08;1.00;;;;;;;;;;4995408;28;20386;-86
2022/10/22 10:32:36;;;;;;;1.85;1.75;;;;;;;;;;4994360;28;20930;-86
2022/10/22 10:35:11;;;;;;;2.30;1.02;;;;;;;;;;4995354;28;20752;-85
2022/10/22 10:38:00;;;;;;;2.47;1.50;;;;;;;;;;4995268;28;20453;-86
2022/10/22 10:40:32;;;;;;;1.17;0.88;;;;;;;;;;4981979;28;20878;-86
2022/10/22 10:43:02;;;;;;;4.38;1.20;;;;;;;;;;4989869;28;20391;-86
2022/10/22 10:45:28;;;;;;;2.33;1.27;;;;;;;;;;4982626;28;20391;-86
2022/10/22 10:48:03;;;;;;;1.85;0.82;;;;;;;;;;4995255;28;20413;-86
2022/10/22 10:50:42;;;;;;;1.27;1.10;;;;;;;;;;4993738;28;20899;-85
2022/10/22 10:53:20;;;;;;;1.63;0.88;;;;;;;;;;4995018;28;20477;-86
2022/10/22 10:55:57;;;;;;;1.77;0.88;;;;;;;;;;4994877;28;20872;-86
2022/10/22 10:58:35;;;;;;;1.35;0.90;;;;;;;;;;4986997;28;20805;-86
2022/10/22 11:01:20;;;;;;;1.20;0.77;;;;;;;;;;4983758;28;20393;-86
2022/10/22 11:03:55;;;;;;;1.65;0.77;;;;;;;;;;4990084;28;20450;-85
2022/10/22 11:06:21;;;;;;;1.17;0.85;;;;;;;;;;4992863;28;20416;-85
2022/10/22 11:09:06;;;;;;;1.23;0.60;;;;;;;;;;4987351;28;20418;-84
2022/10/22 11:11:36;;;;;;;2.30;0.90;;;;;;;;;;4982751;28;20394;-84
2022/10/22 11:14:11;;;;;;;1.70;0.90;;;;;;;;;;4995086;28;20379;-85
2022/10/22 11:16:42;;;;;;;3.03;1.45;;;;;;;;;;4995357;28;20416;-84
2022/10/22 11:19:27;;;;;;;2.95;1.00;;;;;;;;;;4994837;28;20815;-84
2022/10/22 11:21:56;;;;;;;3.10;0.80;;;;;;;;;;4991598;28;20382;-84
2022/10/22 11:24:40;;;;;;;1.27;0.70;;;;;;;;;;4990328;28;20737;-84
2022/10/22 11:27:21;;;;;;;2.10;1.10;;;;;;;;;;4994331;28;20390;-84
2022/10/22 11:29:51;;;;;;;3.42;1.10;;;;;;;;;;4994378;28;20383;-84
2022/10/22 11:32:19;;;;;;;1.80;0.82;;;;;;;;;;4994278;28;20387;-84
2022/10/22 11:34:48;;;;;;;3.08;1.45;;;;;;;;;;4994279;28;20452;-84
2022/10/22 11:37:14;;;;;;;2.15;1.20;;;;;;;;;;4994277;28;20474;-84
2022/10/22 11:39:43;;;;;;;3.97;1.25;;;;;;;;;;4994108;28;20406;-84
2022/10/22 11:42:10;;;;;;;1.42;0.82;;;;;;;;;;4993662;28;20418;-84
2022/10/22 11:45:06;;;;;;;1.60;0.70;;;;;;;;;;4994040;28;20386;-84
2022/10/22 11:47:41;;;;;;;2.40;1.15;;;;;;;;;;4993398;28;20390;-85
2022/10/22 11:50:27;;;;;;;3.27;0.80;;;;;;;;;;4993059;28;20414;-84
2022/10/22 11:52:55;;;;;;;3.20;1.20;;;;;;;;;;4994154;28;20713;-88
2022/10/22 11:55:30;;;;;;;1.38;0.82;;;;;;;;;;4993908;28;20398;-85
2022/10/22 11:57:58;;;;;;;2.10;1.10;;;;;;;;;;4985784;28;20424;-85
2022/10/22 12:00:35;;;;;;;3.17;1.60;;;;;;;;;;4993584;28;20800;-85
2022/10/22 12:03:02;;;;;;;3.20;1.88;;;;;;;;;;4993648;28;20386;-86
2022/10/22 12:05:28;;;;;;;3.63;1.90;;;;;;;;;;4992333;28;20391;-87
2022/10/22 12:08:00;;;;;;;3.37;1.93;;;;;;;;;;4993129;28;20371;-86
2022/10/22 12:10:28;;;;;;;2.08;0.90;;;;;;;;;;4993566;28;20499;-86
2022/10/22 12:13:10;;;;;;;3.00;0.90;;;;;;;;;;4993493;28;20465;-87
2022/10/22 12:15:45;;;;;;;4.18;1.83;;;;;;;;;;4993805;28;20379;-88
2022/10/22 12:18:12;;;;;;;3.00;0.97;;;;;;;;;;4993781;28;20442;-87
2022/10/22 12:20:38;;;;;;;2.10;0.90;;;;;;;;;;4993383;28;20391;-86
2022/10/22 12:23:04;;;;;;;2.25;1.13;;;;;;;;;;4986548;28;20864;-86
2022/10/22 12:25:31;;;;;;;2.38;1.35;;;;;;;;;;4985631;28;20388;-86
2022/10/22 12:27:58;;;;;;;3.47;1.60;;;;;;;;;;4976438;28;20378;-86
2022/10/22 12:30:26;;;;;;;5.07;1.40;;;;;;;;;;4993195;28;20386;-86
2022/10/22 12:32:53;;;;;;;2.30;1.20;;;;;;;;;;4993189;28;20386;-86
2022/10/22 12:35:21;;;;;;;1.17;0.80;;;;;;;;;;4993196;28;20383;-86
2022/10/22 12:37:57;;;;;;;2.17;0.80;;;;;;;;;;4993099;28;20393;-86
2022/10/22 12:40:28;;;;;;;3.35;0.70;;;;;;;;;;4993262;28;20379;-85
2022/10/22 12:42:58;;;;;;;2.10;0.80;;;;;;;;;;4982227;28;20407;-86
2022/10/22 12:45:31;;;;;;;1.92;0.70;;;;;;;;;;4993056;28;20721;-86
2022/10/22 12:47:58;;;;;;;1.27;0.60;;;;;;;;;;4993121;28;20398;-86
2022/10/22 12:50:44;;;;;;;2.30;0.70;;;;;;;;;;4987954;28;20389;-86
2022/10/22 12:53:25;;;;;;;2.35;0.95;;;;;;;;;;4993082;28;20390;-86
2022/10/22 12:55:52;;;;;;;1.92;1.00;;;;;;;;;;4993497;28;20745;-85
2022/10/22 12:58:29;;;;;;;3.20;0.68;;;;;;;;;;4993300;28;20978;-85
2022/10/22 13:00:57;;;;;;;1.80;0.80;;;;;;;;;;4978225;28;20416;-85
2022/10/22 13:03:34;;;;;;;1.60;0.80;;;;;;;;;;4985138;28;20396;-85
2022/10/22 13:06:19;;;;;;;1.38;0.75;;;;;;;;;;4980534;28;20382;-85
2022/10/22 13:08:54;;;;;;;2.08;0.80;;;;;;;;;;4993189;28;20856;-87
2022/10/22 13:11:20;;;;;;;2.80;0.70;;;;;;;;;;4992956;28;20461;-86
2022/10/22 13:13:46;;;;;;;1.92;0.90;;;;;;;;;;4992799;28;20473;-86
2022/10/22 13:16:17;;;;;;;1.65;0.70;;;;;;;;;;4987951;28;20454;-86
2022/10/22 13:18:43;;;;;;;1.57;0.70;;;;;;;;;;4983926;28;20549;-86
2022/10/22 13:21:31;;;;;;;1.50;0.70;;;;;;;;;;4992520;28;20386;-86
2022/10/22 13:24:21;;;;;;;2.95;0.70;;;;;;;;;;4992838;28;20847;-85
2022/10/22 13:26:59;;;;;;;1.23;0.80;;;;;;;;;;4992788;28;20410;-86
2022/10/22 13:29:30;;;;;;;3.05;0.73;;;;;;;;;;4994832;28;20383;-86
2022/10/22 13:31:56;;;;;;;3.40;0.70;;;;;;;;;;4996752;28;20394;-86
2022/10/22 13:34:23;;;;;;;4.10;0.95;;;;;;;;;;4996621;28;20495;-86
2022/10/22 13:36:52;;;;;;;2.60;0.70;;;;;;;;;;4996192;28;20382;-86
2022/10/22 13:39:23;;;;;;;2.97;0.70;;;;;;;;;;4996412;28;20414;-86
2022/10/22 13:41:49;;;;;;;2.38;0.85;;;;;;;;;;4996261;28;20394;-86
2022/10/22 13:44:18;;;;;;;2.50;0.70;;;;;;;;;;4996635;28;20374;-86
2022/10/22 13:46:47;;;;;;;2.20;0.80;;;;;;;;;;4995844;28;20429;-86
2022/10/22 13:49:15;;;;;;;1.65;0.55;;;;;;;;;;4996285;28;20883;-86
2022/10/22 13:51:42;;;;;;;2.13;0.60;;;;;;;;;;4996425;28;20780;-84
2022/10/22 13:54:16;;;;;;;2.63;0.80;;;;;;;;;;4996189;28;20456;-84
2022/10/22 13:56:42;;;;;;;2.05;0.90;;;;;;;;;;4996080;28;20398;-84
2022/10/22 13:59:08;;;;;;;3.05;0.90;;;;;;;;;;4996052;28;20464;-84
2022/10/22 14:01:36;;;;;;;2.10;0.82;;;;;;;;;;4995790;28;20394;-84
2022/10/22 14:04:03;;;;;;;1.67;0.85;;;;;;;;;;4996017;28;20441;-84
2022/10/22 14:06:30;;;;;;;4.10;1.00;;;;;;;;;;4996066;28;20477;-84
2022/10/22 14:08:57;;;;;;;1.67;0.70;;;;;;;;;;4996060;28;20799;-84
2022/10/22 14:11:23;;;;;;;1.75;0.70;;;;;;;;;;4996235;28;20444;-84
2022/10/22 14:13:49;;;;;;;2.55;0.80;;;;;;;;;;4995904;28;20386;-84
2022/10/22 14:16:20;;;;;;;2.15;0.90;;;;;;;;;;4995354;28;20425;-84
2022/10/22 14:18:46;;;;;;;1.80;0.90;;;;;;;;;;4995225;28;20502;-83
2022/10/22 14:21:13;;;;;;;2.67;1.20;;;;;;;;;;4995586;28;20470;-84
2022/10/22 14:23:40;;;;;;;2.13;1.08;;;;;;;;;;4995580;28;20513;-84
2022/10/22 14:26:06;;;;;;;1.60;0.80;;;;;;;;;;4995559;28;20856;-84
2022/10/22 14:28:33;;;;;;;1.50;0.93;;;;;;;;;;4995609;28;20895;-84
2022/10/22 14:30:59;;;;;;;1.50;0.90;;;;;;;;;;4995650;28;20383;-84
2022/10/22 14:33:32;;;;;;;1.60;0.77;;;;;;;;;;4995624;28;20473;-84
2022/10/22 14:36:01;;;;;;;1.48;0.90;;;;;;;;;;4995944;28;20418;-84
2022/10/22 14:38:28;;;;;;;0.73;0.60;;;;;;;;;;4995313;28;20450;-84
2022/10/22 14:40:54;;;;;;;0.98;0.65;;;;;;;;;;4992741;28;20382;-84
2022/10/22 14:43:24;;;;;;;1.13;0.70;;;;;;;;;;4995174;28;20391;-84
2022/10/22 14:45:50;;;;;;;1.70;0.70;;;;;;;;;;4995450;28;20378;-84
2022/10/22 14:48:17;;;;;;;2.60;0.80;;;;;;;;;;4995124;28;20443;-84
2022/10/22 14:50:43;;;;;;;1.40;1.05;;;;;;;;;;4995104;28;20888;-84
2022/10/22 14:53:09;;;;;;;2.65;1.13;;;;;;;;;;4995253;28;20731;-84
2022/10/22 14:55:35;;;;;;;1.95;1.10;;;;;;;;;;4995165;28;20387;-85
2022/10/22 14:58:01;;;;;;;1.60;0.90;;;;;;;;;;4993668;28;20449;-85
2022/10/22 15:00:28;;;;;;;2.30;0.80;;;;;;;;;;4994542;28;20395;-84
2022/10/22 15:02:54;;;;;;;2.45;0.80;;;;;;;;;;4994786;28;20398;-84
2022/10/22 15:05:20;;;;;;;1.50;0.68;;;;;;;;;;4994819;28;20378;-84
2022/10/22 15:07:46;;;;;;;1.20;0.70;;;;;;;;;;4994870;28;20429;-84
2022/10/22 15:10:12;;;;;;;1.80;0.70;;;;;;;;;;4994782;28;20438;-84
2022/10/22 15:12:38;;;;;;;1.30;0.70;;;;;;;;;;4994673;28;20984;-84
2022/10/22 15:15:04;;;;;;;1.15;0.70;;;;;;;;;;4994955;28;20461;-84
2022/10/22 15:17:30;;;;;;;1.85;0.70;;;;;;;;;;4994623;28;20529;-84
2022/10/22 15:19:59;;;;;;;7.88;1.13;;;;;;;;;;4994731;28;20497;-84
2022/10/22 15:22:27;;;;;;;1.52;0.80;;;;;;;;;;4994360;28;20382;-84
2022/10/22 15:24:53;;;;;;;3.13;1.10;;;;;;;;;;4994446;28;20886;-84
2022/10/22 15:27:19;;;;;;;2.95;1.77;;;;;;;;;;4994487;28;20389;-84
2022/10/22 15:29:45;;;;;;;2.00;1.10;;;;;;;;;;4994354;28;20383;-84
2022/10/22 15:32:11;;;;;;;3.03;1.38;;;;;;;;;;4994291;28;20382;-84
2022/10/22 15:34:38;;;;;;;2.90;1.60;;;;;;;;;;4994181;28;20406;-84
2022/10/22 15:37:06;;;;;;;3.20;1.60;;;;;;;;;;4994317;28;20394;-84
2022/10/22 15:39:32;;;;;;;4.20;1.15;;;;;;;;;;4994040;28;20418;-84
2022/10/22 15:41:59;;;;;;;2.97;1.07;;;;;;;;;;4993063;28;20406;-85
2022/10/22 15:44:29;;;;;;;2.95;0.93;;;;;;;;;;4981749;28;20466;-84
2022/10/22 15:46:55;;;;;;;2.53;0.80;;;;;;;;;;4993275;28;20445;-85
2022/10/22 15:49:22;;;;;;;1.25;0.60;;;;;;;;;;4994093;28;20437;-84
2022/10/22 15:51:48;;;;;;;1.92;0.80;;;;;;;;;;4992272;28;20911;-84
2022/10/22 15:54:16;;;;;;;3.78;1.67;;;;;;;;;;4993566;28;20394;-85
2022/10/22 15:56:42;;;;;;;9.70;3.30;;;;;;;;;;4994123;28;20386;-85
2022/10/22 15:59:09;;;;;;;3.72;1.70;;;;;;;;;;4993790;28;20425;-85
2022/10/22 16:01:35;;;;;;;2.10;1.40;;;;;;;;;;4992919;28;20464;-84
2022/10/22 16:04:01;;;;;;;2.70;0.83;;;;;;;;;;4993664;28;20458;-84
2022/10/22 16:06:32;;;;;;;2.63;1.40;;;;;;;;;;4993992;28;20477;-84
2022/10/22 16:08:59;;;;;;;3.50;1.83;;;;;;;;;;4993522;28;20581;-84
2022/10/22 16:11:25;;;;;;;3.50;1.55;;;;;;;;;;4993544;28;20383;-84
2022/10/22 16:13:58;;;;;;;4.03;2.10;;;;;;;;;;4993344;28;20751;-85
2022/10/22 16:16:25;;;;;;;3.03;2.08;;;;;;;;;;4993072;28;20385;-85
2022/10/22 16:18:52;;;;;;;3.45;2.03;;;;;;;;;;4992954;28;20764;-86
2022/10/22 16:21:18;;;;;;;5.10;1.58;;;;;;;;;;4993304;28;20481;-85
2022/10/22 16:23:44;;;;;;;8.70;1.77;;;;;;;;;;4993086;28;20435;-86
2022/10/22 16:26:11;;;;;;;3.15;1.60;;;;;;;;;;4993391;28;20494;-86
2022/10/22 16:28:38;;;;;;;2.03;1.52;;;;;;;;;;4991295;28;20576;-86
2022/10/22 16:31:07;;;;;;;3.50;3.20;;;;;;;;;;4992800;28;20410;-86
2022/10/22 16:33:34;;;;;;;6.30;3.20;;;;;;;;;;4993256;28;20466;-86
2022/10/22 16:36:00;;;;;;;5.88;5.38;;;;;;;;;;4993286;28;20390;-86
2022/10/22 16:38:26;;;;;;;4.55;3.80;;;;;;;;;;4992935;28;20418;-86
2022/10/22 16:40:52;;;;;;;5.05;3.88;;;;;;;;;;4992968;28;20441;-86
2022/10/22 16:43:18;;;;;;;4.55;2.72;;;;;;;;;;4989589;28;20379;-86
2022/10/22 16:45:48;;;;;;;6.00;2.80;;;;;;;;;;4978011;28;20407;-86
2022/10/22 16:48:14;;;;;;;5.75;2.20;;;;;;;;;;4989177;28;20401;-86
2022/10/22 16:50:40;;;;;;;3.70;1.70;;;;;;;;;;4988545;28;20382;-86
2022/10/22 16:53:06;;;;;;;3.65;2.25;;;;;;;;;;4992003;28;20386;-86
2022/10/22 16:55:35;;;;;;;7.43;3.58;;;;;;;;;;4990750;28;20430;-84
2022/10/22 16:58:01;;;;;;;5.07;3.60;;;;;;;;;;4992462;28;20390;-84
2022/10/22 17:00:27;;;;;;;6.13;5.45;;;;;;;;;;4992695;28;20450;-85
2022/10/22 17:02:53;;;;;;;8.93;6.68;;;;;;;;;;4992142;28;20394;-85
2022/10/22 17:05:20;;;;;;;18.92;10.90;;;;;;;;;;4992321;28;20740;-85
2022/10/22 17:07:46;;;;;;;13.60;8.40;;;;;;;;;;4992791;28;20389;-85
2022/10/22 17:10:12;;;;;;;11.73;7.65;;;;;;;;;;4992705;28;20382;-84
2022/10/22 17:12:38;;;;;;;10.25;7.28;;;;;;;;;;4992455;28;20736;-86
2022/10/22 17:15:04;;;;;;;10.10;6.40;;;;;;;;;;4992497;28;20397;-86
2022/10/22 17:17:31;;;;;;;8.95;4.78;;;;;;;;;;4992701;28;20386;-85
2022/10/22 17:19:57;;;;;;;5.32;4.15;;;;;;;;;;4992722;28;20504;-85
2022/10/22 17:22:23;;;;;;;6.10;3.35;;;;;;;;;;4992562;28;20390;-85
2022/10/22 17:25:08;;;;;;;4.75;3.20;;;;;;;;;;4992330;28;20389;-86
2022/10/22 17:27:34;;;;;;;4.50;3.15;;;;;;;;;;4992559;28;20382;-86
2022/10/22 17:30:00;;;;;;;3.78;3.20;;;;;;;;;;4992550;28;20398;-85
2022/10/22 17:32:26;;;;;;;4.63;3.22;;;;;;;;;;4992486;28;20735;-86
2022/10/22 17:34:52;;;;;;;4.35;2.75;;;;;;;;;;4992543;28;20410;-85
2022/10/22 17:37:18;;;;;;;4.88;2.40;;;;;;;;;;4992472;28;20400;-85
2022/10/22 17:39:44;;;;;;;2.00;1.15;;;;;;;;;;4992487;28;20410;-86
2022/10/22 17:42:10;;;;;;;2.33;1.55;;;;;;;;;;4992483;28;20835;-86
2022/10/22 17:44:36;;;;;;;2.30;1.70;;;;;;;;;;4992285;28;20393;-85
2022/10/22 17:47:03;;;;;;;3.40;1.90;;;;;;;;;;4992480;28;20903;-85
2022/10/22 17:49:29;;;;;;;2.03;1.27;;;;;;;;;;4992739;28;20895;-84
2022/10/22 17:51:55;;;;;;;4.30;1.55;;;;;;;;;;4992360;28;20391;-85
2022/10/22 17:54:21;;;;;;;2.40;1.42;;;;;;;;;;4992377;28;20725;-85
2022/10/22 17:56:47;;;;;;;2.67;1.33;;;;;;;;;;4990411;28;20413;-86
2022/10/22 17:59:15;;;;;;;2.95;1.30;;;;;;;;;;4989461;28;20426;-86
2022/10/22 18:01:46;;;;;;;2.13;1.33;;;;;;;;;;4992582;28;20779;-84
2022/10/22 18:04:17;;;;;;;4.78;1.35;;;;;;;;;;4993708;28;20413;-86
2022/10/22 18:06:44;;;;;;;3.10;1.70;;;;;;;;;;4994921;28;20382;-86
2022/10/22 18:09:12;;;;;;;3.13;1.60;;;;;;;;;;4992276;28;20390;-85
2022/10/22 18:11:38;;;;;;;3.10;1.75;;;;;;;;;;4991325;28;20387;-85
2022/10/22 18:14:04;;;;;;;9.67;5.23;;;;;;;;;;4989808;28;20401;-86
2022/10/22 18:16:30;;;;;;;6.65;3.40;;;;;;;;;;4995712;28;20391;-85
2022/10/22 18:18:57;;;;;;;8.43;5.65;;;;;;;;;;4994963;28;20525;-85
2022/10/22 18:21:24;;;;;;;10.60;7.93;;;;;;;;;;4995011;28;20737;-85
2022/10/22 18:23:50;;;;;;;14.15;8.45;;;;;;;;;;4995573;28;20497;-86
2022/10/22 18:26:16;;;;;;;9.57;7.65;;;;;;;;;;4995521;28;20876;-85
2022/10/22 18:28:43;;;;;;;7.60;6.75;;;;;;;;;;4995455;28;20892;-86
2022/10/22 18:31:10;;;;;;;6.67;5.37;;;;;;;;;;4993784;28;20473;-85
2022/10/22 18:33:37;;;;;;;5.00;3.92;;;;;;;;;;4995559;28;20394;-85
2022/10/22 18:36:07;;;;;;;4.93;3.70;;;;;;;;;;4995208;28;20387;-85
2022/10/22 18:38:33;;;;;;;4.85;3.50;;;;;;;;;;4981907;28;20410;-85
2022/10/22 18:41:00;;;;;;;5.38;3.25;;;;;;;;;;4995187;28;20879;-85
2022/10/22 18:43:26;;;;;;;3.67;3.17;;;;;;;;;;4994503;28;20795;-86
2022/10/22 18:45:52;;;;;;;3.50;3.15;;;;;;;;;;4991007;28;20756;-85
2022/10/22 18:48:19;;;;;;;5.20;3.28;;;;;;;;;;4994394;28;20402;-85
2022/10/22 18:50:46;;;;;;;4.28;3.88;;;;;;;;;;4994467;28;20382;-85
2022/10/22 18:53:13;;;;;;;4.30;3.90;;;;;;;;;;4993663;28;20873;-86
2022/10/22 18:55:39;;;;;;;4.90;4.10;;;;;;;;;;4991435;28;20386;-87